.
WxDataArchive / Data Records for 2015-06-14
2015-06-13 June 2015 2015-06-15

Data Records for Sunday, 14 June 2015

Time	Temp	Chill	HIndex	Humid	Dewpt	 Wind 	HiWind	WindDir	Rain 	Barom
-----	----	-----	------	-----	-----	------	------	-------	-----	-----
00:00	69.6	69.6	69.6	94	67.8	0	2	112	0.00	29.953 
00:05	69.6	69.6	69.6	94	67.8	1	3	112	0.00	29.953 
00:10	69.6	69.6	69.6	94	67.8	1	5	90	0.00	29.953 
00:15	69.4	69.4	69.4	94	67.6	0	2	90	0.00	29.955 
00:20	69.4	69.4	69.4	94	67.6	0	2	90	0.00	29.955 
00:25	69.4	69.4	69.4	94	67.6	0	1	90	0.00	29.955 
00:30	69.4	69.4	69.4	94	67.6	0	1	90	0.02	29.955 
00:35	69.6	69.6	69.6	94	67.8	0	1	90	0.03	29.955 
00:40	69.6	69.6	69.6	94	67.8	0	1	90	0.00	29.955 
00:45	69.6	69.6	69.6	94	67.8	0	0	---	0.00	29.945 
00:50	69.6	69.6	69.6	94	67.8	0	0	---	0.00	29.945 
00:55	69.6	69.6	69.6	95	68.1	0	0	---	0.01	29.945 
01:00	69.6	69.6	69.6	95	68.1	0	0	---	0.00	29.944 
01:05	69.6	69.6	69.6	95	68.1	0	0	---	0.00	29.944 
01:10	69.6	69.6	69.6	95	68.1	0	0	---	0.00	29.944 
01:15	69.6	69.6	69.6	95	68.1	0	0	---	0.00	29.938 
01:20	69.8	69.8	69.8	95	68.3	0	0	---	0.00	29.938 
01:25	69.8	69.8	69.8	95	68.3	0	1	90	0.00	29.938 
01:30	69.8	69.8	69.8	95	68.3	0	1	90	0.00	29.939 
01:35	69.6	69.6	69.6	95	68.1	0	0	---	0.00	29.939 
01:40	69.6	69.6	69.6	95	68.1	0	0	---	0.00	29.939 
01:45	69.6	69.6	69.6	95	68.1	0	1	90	0.00	29.940 
01:50	69.6	69.6	69.6	95	68.1	0	0	---	0.00	29.940 
01:55	69.4	69.4	69.4	95	67.9	0	1	90	0.00	29.940 
02:00	69.4	69.4	69.4	95	67.9	0	1	90	0.00	29.941 
02:05	69.3	69.3	69.3	95	67.8	0	1	90	0.00	29.941 
02:10	69.3	69.3	69.3	95	67.8	0	1	90	0.00	29.941 
02:15	69.1	69.1	69.1	95	67.6	0	1	90	0.00	29.933 
02:20	69.1	69.1	69.1	95	67.6	0	1	90	0.00	29.933 
02:25	69.1	69.1	69.1	95	67.6	0	1	90	0.00	29.933 
02:30	69.1	69.1	69.1	95	67.6	0	1	90	0.00	29.935 
02:35	69.1	69.1	69.1	95	67.6	0	1	90	0.00	29.935 
02:40	69.1	69.1	69.1	95	67.6	0	3	90	0.00	29.935 
02:45	68.9	68.9	68.9	95	67.4	0	2	90	0.00	29.934 
02:50	68.9	68.9	68.9	95	67.4	0	1	90	0.00	29.934 
02:55	68.8	68.8	68.8	95	67.3	0	1	90	0.00	29.934 
03:00	68.8	68.8	68.8	95	67.3	0	1	90	0.00	29.934 
03:05	68.8	68.8	68.8	95	67.3	0	1	90	0.00	29.934 
03:10	68.8	68.8	68.8	95	67.3	0	1	90	0.00	29.934 
03:15	68.6	68.6	68.6	95	67.1	0	0	---	0.00	29.934 
03:20	68.6	68.6	68.6	95	67.1	0	0	---	0.00	29.934 
03:25	68.6	68.6	68.6	95	67.1	0	1	90	0.00	29.934 
03:30	68.8	68.8	68.8	95	67.3	0	0	---	0.00	29.928 
03:35	68.8	68.8	68.8	95	67.3	0	0	---	0.00	29.928 
03:40	68.8	68.8	68.8	95	67.3	0	0	---	0.00	29.928 
03:45	68.8	68.8	68.8	95	67.3	0	1	90	0.00	29.926 
03:50	68.8	68.8	68.8	95	67.3	0	0	---	0.00	29.926 
03:55	68.8	68.8	68.8	95	67.3	0	0	---	0.00	29.926 
04:00	68.9	68.9	68.9	96	67.7	0	1	90	0.00	29.922 
04:05	68.9	68.9	68.9	96	67.7	0	0	---	0.00	29.922 
04:10	69.1	69.1	69.1	96	67.9	0	0	---	0.00	29.922 
04:15	69.1	69.1	69.1	96	67.9	0	1	90	0.00	29.913 
04:20	69.1	69.1	69.1	96	67.9	0	0	---	0.00	29.913 
04:25	69.1	69.1	69.1	96	67.9	0	1	90	0.00	29.913 
04:30	69.1	69.1	69.1	96	67.9	0	2	90	0.00	29.911 
04:35	69.1	69.1	69.1	96	67.9	0	0	---	0.00	29.911 
04:40	69.1	69.1	69.1	96	67.9	0	1	90	0.00	29.911 
04:45	69.1	69.1	69.1	96	67.9	0	0	---	0.00	29.914 
04:50	69.3	69.3	69.3	96	68.1	0	0	---	0.00	29.914 
04:55	69.3	69.3	69.3	96	68.1	0	1	90	0.01	29.914 
05:00	69.4	69.4	69.4	96	68.2	0	1	90	0.01	29.915 
05:05	69.6	69.6	69.6	96	68.4	0	3	90	0.00	29.915 
05:10	69.9	69.9	69.9	96	68.7	0	1	90	0.01	29.915 
05:15	70.1	70.1	70.1	96	68.9	0	2	90	0.01	29.914 
05:20	70.1	70.1	70.1	96	68.9	0	1	90	0.00	29.914 
05:25	70.3	70.3	70.3	96	69.1	0	0	---	0.00	29.914 
05:30	70.3	70.3	70.3	96	69.1	0	1	90	0.00	29.918 
05:35	70.3	70.3	70.3	96	69.1	0	0	---	0.00	29.918 
05:40	70.3	70.3	70.3	96	69.1	0	0	---	0.00	29.918 
05:45	70.3	70.3	70.3	96	69.1	0	0	---	0.00	29.914 
05:50	70.3	70.3	70.3	96	69.1	0	0	---	0.00	29.914 
05:55	70.3	70.3	70.3	96	69.1	0	0	---	0.00	29.914 
06:00	70.3	70.3	70.3	96	69.1	0	1	90	0.00	29.914 
06:05	70.3	70.3	70.3	96	69.1	0	0	---	0.00	29.914 
06:10	70.3	70.3	70.3	96	69.1	0	0	---	0.00	29.914 
06:15	70.3	70.3	70.3	96	69.1	0	1	90	0.00	29.926 
06:20	70.4	70.4	70.4	96	69.2	0	1	90	0.00	29.926 
06:25	70.4	70.4	70.4	96	69.2	0	1	90	0.00	29.926 
06:30	70.6	70.6	70.6	96	69.4	0	1	90	0.00	29.929 
06:35	70.6	70.6	70.6	96	69.4	0	1	90	0.00	29.929 
06:40	70.6	70.6	70.6	96	69.4	0	0	---	0.00	29.929 
06:45	70.8	70.8	70.8	96	69.6	0	0	---	0.00	29.927 
06:50	70.8	70.8	70.8	96	69.6	0	1	90	0.00	29.927 
06:55	70.9	70.9	70.9	96	69.7	0	1	90	0.00	29.927 
07:00	70.9	70.9	70.9	96	69.7	0	0	---	0.00	29.929 
07:05	71.1	71.1	71.1	96	69.9	0	1	90	0.00	29.929 
07:10	71.1	71.1	71.1	96	69.9	0	1	90	0.00	29.929 
07:15	71.1	71.1	71.1	96	69.9	0	0	---	0.00	29.929 
07:20	71.3	71.3	71.3	96	70.1	0	0	---	0.00	29.929 
07:25	71.3	71.3	71.3	96	70.1	0	2	270	0.00	29.929 
07:30	71.3	71.3	71.3	96	70.1	0	1	270	0.00	29.934 
07:35	71.3	71.3	71.3	96	70.1	0	2	270	0.00	29.934 
07:40	71.3	71.3	71.3	96	70.1	0	3	270	0.00	29.934 
07:45	71.5	71.5	71.5	96	70.3	0	1	270	0.00	29.935 
07:50	71.5	71.5	71.5	96	70.3	0	2	270	0.00	29.935 
07:55	71.6	71.6	71.6	96	70.4	0	1	270	0.00	29.935 
08:00	71.8	71.8	71.8	96	70.6	0	1	270	0.00	29.935 
08:05	72.0	72.0	72.0	96	70.8	0	1	270	0.00	29.935 
08:10	72.0	72.0	72.0	96	70.8	0	3	270	0.00	29.935 
08:15	72.1	72.1	72.1	96	70.9	0	2	225	0.00	29.940 
08:20	72.5	72.5	72.5	96	71.3	0	2	225	0.00	29.940 
08:25	72.5	72.5	72.5	96	71.3	0	1	248	0.00	29.940 
08:30	72.5	72.5	72.5	96	71.3	0	1	248	0.00	29.935 
08:35	72.5	72.5	72.5	96	71.3	0	1	248	0.00	29.935 
08:40	72.5	72.5	72.5	96	71.3	0	1	248	0.00	29.935 
08:45	72.7	72.7	72.7	96	71.5	0	2	248	0.00	29.940 
08:50	72.8	72.8	72.8	96	71.6	0	1	248	0.00	29.940 
08:55	73.0	73.0	73.0	96	71.8	0	1	248	0.00	29.940 
09:00	73.2	73.2	73.2	95	71.7	0	3	248	0.00	29.939 
09:05	73.3	73.3	73.3	95	71.8	0	3	248	0.00	29.939 
09:10	73.5	73.5	73.5	95	72.0	0	2	248	0.00	29.939 
09:15	73.7	73.7	73.7	95	72.2	0	2	248	0.00	29.936 
09:20	73.9	73.9	73.9	94	72.1	0	3	248	0.00	29.936 
09:25	74.2	74.2	74.2	94	72.4	0	2	248	0.00	29.936 
09:30	74.6	74.6	74.6	93	72.4	0	3	315	0.00	29.935 
09:35	74.9	74.9	74.9	93	72.7	1	6	315	0.00	29.935 
09:40	75.4	75.4	74.5	92	72.9	0	2	68	0.00	29.935 
09:45	76.0	76.0	75.9	91	73.2	0	2	45	0.00	29.933 
09:50	76.3	76.3	76.8	89	72.8	0	2	22	0.00	29.933 
09:55	76.8	76.8	77.9	88	73.0	0	1	0	0.00	29.933 
10:00	77.2	77.2	78.8	86	72.7	0	3	315	0.00	29.930 
10:05	77.6	77.6	79.6	83	72.0	1	3	270	0.00	29.930 
10:10	77.9	77.9	80.1	81	71.6	1	4	292	0.00	29.930 
10:15	78.5	78.5	81.2	80	71.8	1	4	292	0.00	29.932 
10:20	78.8	78.8	81.7	78	71.3	1	5	315	0.00	29.932 
10:25	78.8	78.8	81.7	78	71.3	1	3	338	0.00	29.932 
10:30	78.8	78.8	81.6	77	71.0	1	5	315	0.00	29.932 
10:35	79.0	79.0	81.8	75	70.4	1	4	270	0.00	29.932 
10:40	79.2	79.2	82.1	75	70.6	1	5	270	0.00	29.932 
10:45	79.4	79.4	82.6	76	71.2	0	3	270	0.00	29.932 
10:50	79.4	79.4	82.4	74	70.4	1	4	292	0.00	29.932 
10:55	79.4	79.4	82.5	75	70.8	1	4	292	0.00	29.932 
11:00	79.4	79.4	82.5	75	70.8	0	3	292	0.00	29.931 
11:05	79.4	79.4	82.6	76	71.2	1	4	292	0.00	29.931 
11:10	79.6	79.6	83.0	76	71.3	1	4	292	0.00	29.931 
11:15	79.4	79.4	82.6	76	71.2	1	2	248	0.00	29.932 
11:20	79.4	79.4	82.6	76	71.2	1	4	248	0.00	29.932 
11:25	79.6	79.6	83.0	76	71.3	1	3	248	0.00	29.932 
11:30	79.8	79.8	83.3	76	71.5	0	2	248	0.00	29.929 
11:35	79.8	79.8	83.3	76	71.5	1	3	248	0.00	29.929 
11:40	79.9	79.9	83.6	77	72.0	0	2	292	0.00	29.929 
11:45	79.8	79.8	83.2	75	71.1	0	3	292	0.00	29.926 
11:50	79.8	79.8	83.3	76	71.5	1	3	292	0.00	29.926 
11:55	79.9	79.9	83.4	75	71.2	1	3	292	0.00	29.926 
12:00	80.1	80.1	83.8	75	71.4	1	4	292	0.00	29.926 
12:05	79.9	79.9	83.3	74	70.8	1	5	270	0.00	29.926 
12:10	80.1	80.1	83.6	74	71.0	1	4	338	0.00	29.926 
12:15	79.9	79.9	83.0	72	70.0	1	4	292	0.00	29.930 
12:20	79.8	79.8	83.1	74	70.8	1	4	270	0.00	29.930 
12:25	80.3	80.3	84.1	75	71.6	0	3	270	0.00	29.930 
12:30	80.7	80.7	84.6	73	71.2	1	5	270	0.00	29.928 
12:35	81.1	81.1	85.2	72	71.2	1	5	270	0.00	29.928 
12:40	81.2	81.2	85.0	70	70.5	1	4	270	0.00	29.928 
12:45	81.4	81.4	85.3	70	70.7	1	5	112	0.00	29.930 
12:50	81.2	81.2	84.8	69	70.0	1	3	112	0.00	29.930 
12:55	81.1	81.1	85.0	71	70.8	1	7	315	0.00	29.930 
13:00	81.1	81.1	85.0	71	70.8	1	4	0	0.00	29.928 
13:05	80.9	80.9	84.8	72	71.0	1	4	270	0.00	29.928 
13:10	81.1	81.1	85.2	72	71.2	1	4	270	0.00	29.928 
13:15	81.4	81.4	85.5	71	71.1	1	3	248	0.00	29.924 
13:20	82.0	82.0	86.9	72	72.1	1	4	338	0.00	29.924 
13:25	82.4	82.4	87.2	70	71.6	1	3	338	0.00	29.924 
13:30	82.6	82.6	87.1	68	70.9	2	5	248	0.00	29.920 
13:35	82.8	82.8	87.2	67	70.7	2	6	270	0.00	29.920 
13:40	83.2	83.2	88.2	68	71.5	1	7	292	0.00	29.920 
13:45	83.2	83.2	87.7	66	70.6	2	9	292	0.00	29.913 
13:50	83.2	83.2	87.5	65	70.2	1	4	112	0.00	29.913 
13:55	82.8	82.8	87.0	66	70.3	1	5	270	0.00	29.913 
14:00	82.6	82.6	87.1	68	70.9	1	2	270	0.00	29.912 
14:05	82.2	82.2	86.6	69	71.0	1	4	270	0.00	29.912 
14:10	82.2	82.2	86.6	69	71.0	1	2	248	0.00	29.912 
14:15	82.0	82.0	86.0	68	70.4	2	4	248	0.00	29.903 
14:20	82.2	82.2	86.4	68	70.6	1	4	248	0.00	29.903 
14:25	82.6	82.6	86.6	66	70.1	2	5	248	0.00	29.903 
14:30	83.2	83.2	87.5	65	70.2	2	6	248	0.00	29.899 
14:35	83.4	83.4	87.6	64	69.9	1	5	270	0.00	29.899 
14:40	83.6	83.6	87.6	63	69.6	2	7	270	0.00	29.899 
14:45	83.2	83.2	86.9	63	69.3	2	6	270	0.00	29.899 
14:50	82.4	82.4	86.3	66	69.9	2	5	270	0.00	29.899 
14:55	81.4	81.4	85.1	69	70.2	1	6	270	0.00	29.899 
15:00	80.7	80.7	84.6	73	71.2	0	3	315	0.00	29.899 
15:05	80.1	80.1	83.5	73	70.6	1	5	292	0.00	29.899 
15:10	80.1	80.1	83.6	74	71.0	0	3	292	0.00	29.899 
15:15	80.7	80.7	85.2	77	72.8	1	5	292	0.00	29.898 
15:20	81.2	81.2	85.7	74	72.1	1	5	292	0.00	29.898 
15:25	81.2	81.2	85.9	75	72.5	1	3	292	0.00	29.898 
15:30	81.1	81.1	85.9	76	72.8	1	4	292	0.00	29.891 
15:35	81.1	81.1	85.9	76	72.8	0	4	292	0.00	29.891 
15:40	81.6	81.6	86.9	76	73.3	0	3	292	0.00	29.891 
15:45	82.2	82.2	87.5	73	72.7	1	4	292	0.00	29.887 
15:50	82.6	82.6	88.1	72	72.6	0	2	292	0.00	29.887 
15:55	82.8	82.8	88.5	72	72.8	1	3	292	0.00	29.887 
16:00	83.2	83.2	89.1	71	72.8	1	4	292	0.00	29.885 
16:05	83.4	83.4	89.2	70	72.6	2	5	292	0.00	29.885 
16:10	83.8	83.8	90.4	71	73.4	1	4	292	0.00	29.885 
16:15	84.1	84.1	91.0	71	73.7	1	3	292	0.00	29.880 
16:20	84.1	84.1	89.4	66	71.5	1	4	292	0.00	29.880 
16:25	84.1	84.1	89.1	65	71.0	2	5	292	0.00	29.880 
16:30	84.1	84.1	89.1	65	71.0	1	4	270	0.00	29.879 
16:35	83.8	83.8	88.8	66	71.2	1	4	270	0.00	29.879 
16:40	83.4	83.4	88.1	66	70.8	1	3	270	0.00	29.879 
16:45	82.8	82.8	87.0	66	70.3	1	5	270	0.00	29.883 
16:50	82.4	82.4	86.7	68	70.8	1	4	270	0.00	29.883 
16:55	82.2	82.2	86.6	69	71.0	0	2	270	0.00	29.883 
17:00	81.8	81.8	85.9	69	70.6	1	3	270	0.00	29.888 
17:05	81.6	81.6	85.7	70	70.8	1	3	270	0.00	29.888 
17:10	81.4	81.4	85.5	71	71.1	1	4	270	0.00	29.888 
17:15	81.2	81.2	85.3	72	71.3	1	4	270	0.00	29.883 
17:20	81.1	81.1	85.2	72	71.2	1	3	270	0.00	29.883 
17:25	80.9	80.9	85.0	73	71.4	2	4	292	0.00	29.883 
17:30	80.5	80.5	84.4	74	71.4	2	5	292	0.00	29.884 
17:35	80.1	80.1	83.6	74	71.0	2	4	292	0.00	29.884 
17:40	79.8	79.8	83.2	75	71.1	1	3	292	0.00	29.884 
17:45	79.2	79.2	82.3	77	71.3	0	2	292	0.00	29.895 
17:50	78.5	78.5	81.2	79	71.4	0	2	292	0.00	29.895 
17:55	77.9	77.9	80.1	81	71.6	0	1	292	0.00	29.895 
18:00	77.4	77.4	79.2	83	71.8	0	1	292	0.00	29.900 
18:05	77.0	77.0	78.4	84	71.8	1	3	292	0.02	29.900 
18:10	76.5	76.5	77.4	86	72.0	0	2	292	0.01	29.900 
18:15	76.1	76.1	76.6	87	71.9	0	2	292	0.01	29.904 
18:20	75.8	75.8	75.9	88	72.0	0	2	292	0.00	29.904 
18:25	75.6	75.6	75.4	89	72.1	0	4	292	0.03	29.904 
18:30	74.9	74.9	74.9	89	71.4	0	3	292	0.02	29.901 
18:35	74.6	74.6	74.6	90	71.5	0	1	292	0.00	29.901 
18:40	74.4	74.4	74.4	90	71.3	0	2	292	0.01	29.901 
18:45	74.4	74.4	74.4	91	71.6	0	1	292	0.01	29.899 
18:50	74.2	74.2	74.2	91	71.4	0	1	292	0.01	29.899 
18:55	74.0	74.0	74.0	91	71.2	0	2	292	0.00	29.899 
19:00	73.9	73.9	73.9	92	71.4	0	1	292	0.00	29.901 
19:05	73.7	73.7	73.7	92	71.2	0	0	---	0.00	29.901 
19:10	73.5	73.5	73.5	92	71.0	0	2	292	0.00	29.901 
19:15	73.3	73.3	73.3	92	70.8	0	1	292	0.00	29.902 
19:20	73.2	73.2	73.2	92	70.7	0	2	292	0.00	29.902 
19:25	73.2	73.2	73.2	92	70.7	0	1	292	0.00	29.902 
19:30	73.2	73.2	73.2	92	70.7	0	2	292	0.00	29.905 
19:35	73.2	73.2	73.2	92	70.7	0	1	292	0.00	29.905 
19:40	73.2	73.2	73.2	93	71.0	0	2	292	0.00	29.905 
19:45	73.2	73.2	73.2	93	71.0	0	1	292	0.00	29.908 
19:50	73.3	73.3	73.3	93	71.1	0	0	---	0.00	29.908 
19:55	73.3	73.3	73.3	93	71.1	0	0	---	0.00	29.908 
20:00	73.3	73.3	73.3	93	71.1	0	1	292	0.00	29.904 
20:05	73.3	73.3	73.3	93	71.1	0	0	---	0.00	29.904 
20:10	73.3	73.3	73.3	93	71.1	0	1	292	0.00	29.904 
20:15	73.2	73.2	73.2	93	71.0	0	1	292	0.00	29.903 
20:20	73.2	73.2	73.2	93	71.0	0	1	292	0.00	29.903 
20:25	73.3	73.3	73.3	93	71.1	0	1	292	0.00	29.903 
20:30	73.3	73.3	73.3	93	71.1	0	1	292	0.00	29.903 
20:35	73.5	73.5	73.5	93	71.3	0	2	292	0.00	29.903 
20:40	73.5	73.5	73.5	93	71.3	0	0	---	0.00	29.903 
20:45	73.5	73.5	73.5	93	71.3	0	1	292	0.00	29.905 
20:50	73.5	73.5	73.5	93	71.3	0	0	---	0.00	29.905 
20:55	73.5	73.5	73.5	93	71.3	0	0	---	0.00	29.905 
21:00	73.5	73.5	73.5	93	71.3	0	1	292	0.00	29.902 
21:05	73.3	73.3	73.3	93	71.1	0	0	---	0.00	29.902 
21:10	73.3	73.3	73.3	93	71.1	0	0	---	0.00	29.902 
21:15	73.3	73.3	73.3	93	71.1	0	0	---	0.00	29.897 
21:20	73.2	73.2	73.2	93	71.0	0	0	---	0.00	29.897 
21:25	73.2	73.2	73.2	93	71.0	0	0	---	0.00	29.897 
21:30	73.0	73.0	73.0	93	70.8	0	0	---	0.00	29.897 
21:35	73.0	73.0	73.0	93	70.8	0	0	---	0.00	29.897 
21:40	73.0	73.0	73.0	93	70.8	0	0	---	0.00	29.897 
21:45	72.8	72.8	72.8	93	70.7	0	0	---	0.00	29.899 
21:50	72.8	72.8	72.8	93	70.7	0	0	---	0.00	29.899 
21:55	72.8	72.8	72.8	93	70.7	0	0	---	0.00	29.899 
22:00	72.7	72.7	72.7	93	70.6	0	0	---	0.00	29.898 
22:05	72.7	72.7	72.7	94	70.9	0	0	---	0.00	29.898 
22:10	72.7	72.7	72.7	94	70.9	0	0	---	0.00	29.898 
22:15	72.7	72.7	72.7	94	70.9	0	2	292	0.00	29.898 
22:20	72.7	72.7	72.7	94	70.9	0	1	292	0.00	29.898 
22:25	72.5	72.5	72.5	94	70.7	0	0	---	0.00	29.898 
22:30	72.5	72.5	72.5	94	70.7	0	0	---	0.00	29.905 
22:35	72.5	72.5	72.5	94	70.7	0	0	---	0.00	29.905 
22:40	72.5	72.5	72.5	94	70.7	0	0	---	0.00	29.905 
22:45	72.3	72.3	72.3	94	70.5	0	0	---	0.00	29.913 
22:50	72.3	72.3	72.3	94	70.5	0	0	---	0.00	29.913 
22:55	72.3	72.3	72.3	94	70.5	0	1	292	0.00	29.913 
23:00	72.3	72.3	72.3	94	70.5	0	0	---	0.00	29.925 
23:05	72.3	72.3	72.3	94	70.5	0	0	---	0.00	29.925 
23:10	72.1	72.1	72.1	94	70.3	0	0	---	0.00	29.925 
23:15	72.1	72.1	72.1	94	70.3	0	0	---	0.00	29.926 
23:20	72.0	72.0	72.0	94	70.2	0	0	---	0.00	29.926 
23:25	72.0	72.0	72.0	94	70.2	0	0	---	0.00	29.926 
23:30	71.8	71.8	71.8	94	70.0	0	0	---	0.00	29.922 
23:35	71.8	71.8	71.8	94	70.0	0	0	---	0.00	29.922 
23:40	71.8	71.8	71.8	94	70.0	0	0	---	0.00	29.922 
23:45	71.8	71.8	71.8	94	70.0	0	0	---	0.00	29.925 
23:50	71.8	71.8	71.8	94	70.0	0	0	---	0.00	29.925 
23:55	71.8	71.8	71.8	94	70.0	0	0	---	0.00	29.925 

CoCoRaHS
IN-AL-39
A2 Web Hosting
Creative Commons License
GoDaddy
search engine by freefind advanced

loaded 2018-11-20 03:29:01 • last modified 2010-11-18 10:43:29
Privacy PolicyDisclaimer
• wx.awcolley.com is powered by PmWiki v.2002016 •
• all content (unless otherwise noted) © 2018 A W Colley